sensor_id;sensor_type;location;lat;lon;timestamp;temperature;humidity
8557;DHT22;4316;53.840;10.762;2023-03-01T00:01:31;0.90;99.90
8557;DHT22;4316;53.840;10.762;2023-03-01T00:03:58;0.90;99.90
8557;DHT22;4316;53.840;10.762;2023-03-01T00:06:26;0.90;99.90
8557;DHT22;4316;53.840;10.762;2023-03-01T00:08:52;0.90;99.90
8557;DHT22;4316;53.840;10.762;2023-03-01T00:11:23;0.90;99.90
8557;DHT22;4316;53.840;10.762;2023-03-01T00:13:52;0.90;99.90
8557;DHT22;4316;53.840;10.762;2023-03-01T00:16:20;0.90;99.90
8557;DHT22;4316;53.840;10.762;2023-03-01T00:18:47;0.90;99.90
8557;DHT22;4316;53.840;10.762;2023-03-01T00:21:13;0.80;99.90
8557;DHT22;4316;53.840;10.762;2023-03-01T00:23:39;0.80;99.90
8557;DHT22;4316;53.840;10.762;2023-03-01T00:26:10;0.80;99.90
8557;DHT22;4316;53.840;10.762;2023-03-01T00:28:38;0.80;99.90
8557;DHT22;4316;53.840;10.762;2023-03-01T00:31:14;0.80;99.90
8557;DHT22;4316;53.840;10.762;2023-03-01T00:33:41;0.80;99.90
8557;DHT22;4316;53.840;10.762;2023-03-01T00:36:08;0.60;99.90
8557;DHT22;4316;53.840;10.762;2023-03-01T00:38:36;0.60;99.90
8557;DHT22;4316;53.840;10.762;2023-03-01T00:41:10;0.60;99.90
8557;DHT22;4316;53.840;10.762;2023-03-01T00:43:37;0.60;99.90
8557;DHT22;4316;53.840;10.762;2023-03-01T00:46:11;0.60;99.90
8557;DHT22;4316;53.840;10.762;2023-03-01T00:48:38;0.60;99.90
8557;DHT22;4316;53.840;10.762;2023-03-01T00:53:37;0.50;99.90
8557;DHT22;4316;53.840;10.762;2023-03-01T00:56:04;0.50;99.90
8557;DHT22;4316;53.840;10.762;2023-03-01T00:58:30;0.50;99.90
8557;DHT22;4316;53.840;10.762;2023-03-01T01:00:56;0.50;99.90
8557;DHT22;4316;53.840;10.762;2023-03-01T01:03:22;0.50;99.90
8557;DHT22;4316;53.840;10.762;2023-03-01T01:05:53;0.50;99.90
8557;DHT22;4316;53.840;10.762;2023-03-01T01:08:20;0.40;99.90
8557;DHT22;4316;53.840;10.762;2023-03-01T01:10:46;0.40;99.90
8557;DHT22;4316;53.840;10.762;2023-03-01T01:13:12;0.40;99.90
8557;DHT22;4316;53.840;10.762;2023-03-01T01:15:38;0.30;99.90
8557;DHT22;4316;53.840;10.762;2023-03-01T01:18:05;0.30;99.90
8557;DHT22;4316;53.840;10.762;2023-03-01T01:20:31;0.20;99.90
8557;DHT22;4316;53.840;10.762;2023-03-01T01:22:56;0.20;99.90
8557;DHT22;4316;53.840;10.762;2023-03-01T01:25:23;0.20;99.90
8557;DHT22;4316;53.840;10.762;2023-03-01T01:27:51;0.20;99.90
8557;DHT22;4316;53.840;10.762;2023-03-01T01:30:17;0.20;99.90
8557;DHT22;4316;53.840;10.762;2023-03-01T01:32:42;0.10;99.90
8557;DHT22;4316;53.840;10.762;2023-03-01T01:35:08;0.10;99.90
8557;DHT22;4316;53.840;10.762;2023-03-01T01:37:34;0.10;99.90
8557;DHT22;4316;53.840;10.762;2023-03-01T01:40:01;0.10;99.90
8557;DHT22;4316;53.840;10.762;2023-03-01T01:42:30;0.10;99.90
8557;DHT22;4316;53.840;10.762;2023-03-01T01:45:31;0.10;99.90
8557;DHT22;4316;53.840;10.762;2023-03-01T01:48:03;-0.10;99.90
8557;DHT22;4316;53.840;10.762;2023-03-01T01:50:29;0.20;99.90
8557;DHT22;4316;53.840;10.762;2023-03-01T01:53:12;0.10;99.90
8557;DHT22;4316;53.840;10.762;2023-03-01T01:55:43;0.10;99.90
8557;DHT22;4316;53.840;10.762;2023-03-01T01:58:14;0.10;99.90
8557;DHT22;4316;53.840;10.762;2023-03-01T02:00:41;0.10;99.90
8557;DHT22;4316;53.840;10.762;2023-03-01T02:03:10;0.10;99.90
8557;DHT22;4316;53.840;10.762;2023-03-01T02:05:46;0.10;99.90
8557;DHT22;4316;53.840;10.762;2023-03-01T02:08:14;0.10;99.90
8557;DHT22;4316;53.840;10.762;2023-03-01T02:10:41;0.10;99.90
8557;DHT22;4316;53.840;10.762;2023-03-01T02:13:09;0.00;99.90
8557;DHT22;4316;53.840;10.762;2023-03-01T02:15:36;0.00;99.90
8557;DHT22;4316;53.840;10.762;2023-03-01T02:18:03;0.00;99.90
8557;DHT22;4316;53.840;10.762;2023-03-01T02:23:04;-0.10;99.90
8557;DHT22;4316;53.840;10.762;2023-03-01T02:30:49;-0.40;99.90
8557;DHT22;4316;53.840;10.762;2023-03-01T02:33:36;-0.30;99.90
8557;DHT22;4316;53.840;10.762;2023-03-01T02:36:15;-0.20;99.90
8557;DHT22;4316;53.840;10.762;2023-03-01T02:38:42;-0.10;99.90
8557;DHT22;4316;53.840;10.762;2023-03-01T02:41:09;-0.10;99.90
8557;DHT22;4316;53.840;10.762;2023-03-01T02:43:36;-0.20;99.90
8557;DHT22;4316;53.840;10.762;2023-03-01T02:46:08;-0.30;99.90
8557;DHT22;4316;53.840;10.762;2023-03-01T02:48:47;-0.30;99.90
8557;DHT22;4316;53.840;10.762;2023-03-01T02:56:41;-0.30;99.90
8557;DHT22;4316;53.840;10.762;2023-03-01T02:59:07;-0.30;99.90
8557;DHT22;4316;53.840;10.762;2023-03-01T03:01:35;-0.40;99.90
8557;DHT22;4316;53.840;10.762;2023-03-01T03:04:08;-0.40;99.90
8557;DHT22;4316;53.840;10.762;2023-03-01T03:06:36;-0.30;99.90
8557;DHT22;4316;53.840;10.762;2023-03-01T03:09:03;-0.30;99.90
8557;DHT22;4316;53.840;10.762;2023-03-01T03:11:29;-0.30;99.90
8557;DHT22;4316;53.840;10.762;2023-03-01T03:13:57;-0.30;99.90
8557;DHT22;4316;53.840;10.762;2023-03-01T03:16:23;-0.30;99.90
8557;DHT22;4316;53.840;10.762;2023-03-01T03:18:50;-0.30;99.90
8557;DHT22;4316;53.840;10.762;2023-03-01T03:21:16;-0.30;99.90
8557;DHT22;4316;53.840;10.762;2023-03-01T03:23:43;-0.30;99.90
8557;DHT22;4316;53.840;10.762;2023-03-01T03:26:09;-0.30;99.90
8557;DHT22;4316;53.840;10.762;2023-03-01T03:28:38;-0.40;99.90
8557;DHT22;4316;53.840;10.762;2023-03-01T03:31:09;-0.40;99.90
8557;DHT22;4316;53.840;10.762;2023-03-01T03:33:35;-0.40;99.90
8557;DHT22;4316;53.840;10.762;2023-03-01T03:36:01;-0.50;99.90
8557;DHT22;4316;53.840;10.762;2023-03-01T03:38:26;-0.50;99.90
8557;DHT22;4316;53.840;10.762;2023-03-01T03:41:00;-0.40;99.90
8557;DHT22;4316;53.840;10.762;2023-03-01T03:43:28;-0.40;99.90
8557;DHT22;4316;53.840;10.762;2023-03-01T03:45:54;-0.50;99.90
8557;DHT22;4316;53.840;10.762;2023-03-01T03:48:21;-0.40;99.90
8557;DHT22;4316;53.840;10.762;2023-03-01T03:50:54;-0.40;99.90
8557;DHT22;4316;53.840;10.762;2023-03-01T03:53:21;-0.40;99.90
8557;DHT22;4316;53.840;10.762;2023-03-01T03:55:48;-0.50;99.90
8557;DHT22;4316;53.840;10.762;2023-03-01T03:58:17;-0.40;99.90
8557;DHT22;4316;53.840;10.762;2023-03-01T04:00:46;-0.50;99.90
8557;DHT22;4316;53.840;10.762;2023-03-01T04:03:14;-0.40;99.90
8557;DHT22;4316;53.840;10.762;2023-03-01T04:05:41;-0.40;99.90
8557;DHT22;4316;53.840;10.762;2023-03-01T04:08:08;-0.40;99.90
8557;DHT22;4316;53.840;10.762;2023-03-01T04:13:02;-0.50;99.90
8557;DHT22;4316;53.840;10.762;2023-03-01T04:15:28;-0.60;99.90
8557;DHT22;4316;53.840;10.762;2023-03-01T04:17:55;-0.60;99.90
8557;DHT22;4316;53.840;10.762;2023-03-01T04:20:24;-0.60;99.90
8557;DHT22;4316;53.840;10.762;2023-03-01T04:25:49;-0.60;99.90
8557;DHT22;4316;53.840;10.762;2023-03-01T04:28:26;-0.50;99.90
8557;DHT22;4316;53.840;10.762;2023-03-01T04:30:53;-0.50;99.90
8557;DHT22;4316;53.840;10.762;2023-03-01T04:33:19;-0.50;99.90
8557;DHT22;4316;53.840;10.762;2023-03-01T04:35:46;-0.50;99.90
8557;DHT22;4316;53.840;10.762;2023-03-01T04:38:15;-0.50;99.90
8557;DHT22;4316;53.840;10.762;2023-03-01T04:40:41;-0.60;99.90
8557;DHT22;4316;53.840;10.762;2023-03-01T04:43:10;-0.60;99.90
8557;DHT22;4316;53.840;10.762;2023-03-01T04:45:36;-0.60;99.90
8557;DHT22;4316;53.840;10.762;2023-03-01T04:48:03;-0.60;99.90
8557;DHT22;4316;53.840;10.762;2023-03-01T04:50:29;-0.60;99.90
8557;DHT22;4316;53.840;10.762;2023-03-01T04:52:55;-0.70;99.90
8557;DHT22;4316;53.840;10.762;2023-03-01T04:55:28;-0.70;99.90
8557;DHT22;4316;53.840;10.762;2023-03-01T04:57:55;-0.70;99.90
8557;DHT22;4316;53.840;10.762;2023-03-01T05:00:21;-0.70;99.90
8557;DHT22;4316;53.840;10.762;2023-03-01T05:02:49;-0.70;99.90
8557;DHT22;4316;53.840;10.762;2023-03-01T05:05:38;-0.60;99.90
8557;DHT22;4316;53.840;10.762;2023-03-01T05:08:08;-0.60;99.90
8557;DHT22;4316;53.840;10.762;2023-03-01T05:10:35;-0.60;99.90
8557;DHT22;4316;53.840;10.762;2023-03-01T05:13:02;-0.60;99.90
8557;DHT22;4316;53.840;10.762;2023-03-01T05:15:30;-0.70;99.90
8557;DHT22;4316;53.840;10.762;2023-03-01T05:17:58;-0.70;99.90
8557;DHT22;4316;53.840;10.762;2023-03-01T05:20:26;-0.70;99.90
8557;DHT22;4316;53.840;10.762;2023-03-01T05:22:53;-0.80;99.90
8557;DHT22;4316;53.840;10.762;2023-03-01T05:25:20;-0.70;99.90
8557;DHT22;4316;53.840;10.762;2023-03-01T05:27:46;-0.60;99.90
8557;DHT22;4316;53.840;10.762;2023-03-01T05:30:12;-0.60;99.90
8557;DHT22;4316;53.840;10.762;2023-03-01T05:32:51;-0.60;99.90
8557;DHT22;4316;53.840;10.762;2023-03-01T05:35:21;-0.50;99.90
8557;DHT22;4316;53.840;10.762;2023-03-01T05:37:48;-0.50;99.90
8557;DHT22;4316;53.840;10.762;2023-03-01T05:40:19;-0.40;99.90
8557;DHT22;4316;53.840;10.762;2023-03-01T05:42:48;-0.50;99.90
8557;DHT22;4316;53.840;10.762;2023-03-01T05:45:15;-0.50;99.90
8557;DHT22;4316;53.840;10.762;2023-03-01T05:47:42;-0.50;99.90
8557;DHT22;4316;53.840;10.762;2023-03-01T05:50:19;-0.40;99.90
8557;DHT22;4316;53.840;10.762;2023-03-01T05:52:47;-0.40;99.90
8557;DHT22;4316;53.840;10.762;2023-03-01T05:55:15;-0.40;99.90
8557;DHT22;4316;53.840;10.762;2023-03-01T05:57:41;-0.50;99.90
8557;DHT22;4316;53.840;10.762;2023-03-01T06:00:11;-0.40;99.90
8557;DHT22;4316;53.840;10.762;2023-03-01T06:02:38;-0.40;99.90
8557;DHT22;4316;53.840;10.762;2023-03-01T06:05:06;-0.50;99.90
8557;DHT22;4316;53.840;10.762;2023-03-01T06:07:32;-0.40;99.90
8557;DHT22;4316;53.840;10.762;2023-03-01T06:09:57;-0.30;99.90
8557;DHT22;4316;53.840;10.762;2023-03-01T06:12:23;-0.30;99.90
8557;DHT22;4316;53.840;10.762;2023-03-01T06:14:49;-0.30;99.90
8557;DHT22;4316;53.840;10.762;2023-03-01T06:17:14;-0.20;99.90
8557;DHT22;4316;53.840;10.762;2023-03-01T06:19:40;-0.20;99.90
8557;DHT22;4316;53.840;10.762;2023-03-01T06:22:06;-0.20;99.90
8557;DHT22;4316;53.840;10.762;2023-03-01T06:24:32;-0.20;99.90
8557;DHT22;4316;53.840;10.762;2023-03-01T06:26:58;-0.20;99.90
8557;DHT22;4316;53.840;10.762;2023-03-01T06:29:24;-0.20;99.90
8557;DHT22;4316;53.840;10.762;2023-03-01T06:31:50;-0.20;99.90
8557;DHT22;4316;53.840;10.762;2023-03-01T06:34:16;-0.20;99.90
8557;DHT22;4316;53.840;10.762;2023-03-01T06:36:42;-0.20;99.90
8557;DHT22;4316;53.840;10.762;2023-03-01T06:39:07;-0.10;99.90
8557;DHT22;4316;53.840;10.762;2023-03-01T06:41:33;-0.10;99.90
8557;DHT22;4316;53.840;10.762;2023-03-01T06:43:59;-0.10;99.90
8557;DHT22;4316;53.840;10.762;2023-03-01T06:46:25;-0.10;99.90
8557;DHT22;4316;53.840;10.762;2023-03-01T06:48:51;-0.10;99.90
8557;DHT22;4316;53.840;10.762;2023-03-01T06:51:17;0.00;99.90
8557;DHT22;4316;53.840;10.762;2023-03-01T06:53:42;0.00;99.90
8557;DHT22;4316;53.840;10.762;2023-03-01T06:56:08;0.00;99.90
8557;DHT22;4316;53.840;10.762;2023-03-01T06:58:34;0.00;99.90
8557;DHT22;4316;53.840;10.762;2023-03-01T07:00:59;0.00;99.90
8557;DHT22;4316;53.840;10.762;2023-03-01T07:03:25;0.00;99.90
8557;DHT22;4316;53.840;10.762;2023-03-01T07:05:51;0.20;99.90
8557;DHT22;4316;53.840;10.762;2023-03-01T07:08:18;0.20;99.90
8557;DHT22;4316;53.840;10.762;2023-03-01T07:10:44;0.20;99.90
8557;DHT22;4316;53.840;10.762;2023-03-01T07:13:10;0.30;99.90
8557;DHT22;4316;53.840;10.762;2023-03-01T07:15:36;0.30;99.90
8557;DHT22;4316;53.840;10.762;2023-03-01T07:18:02;0.30;99.90
8557;DHT22;4316;53.840;10.762;2023-03-01T07:20:27;0.30;99.90
8557;DHT22;4316;53.840;10.762;2023-03-01T07:22:54;0.40;99.90
8557;DHT22;4316;53.840;10.762;2023-03-01T07:25:20;0.40;99.90
8557;DHT22;4316;53.840;10.762;2023-03-01T07:27:53;0.40;99.90
8557;DHT22;4316;53.840;10.762;2023-03-01T07:30:19;0.50;99.90
8557;DHT22;4316;53.840;10.762;2023-03-01T07:32:45;0.50;99.90
8557;DHT22;4316;53.840;10.762;2023-03-01T07:35:11;0.60;99.90
8557;DHT22;4316;53.840;10.762;2023-03-01T07:37:37;0.70;99.90
8557;DHT22;4316;53.840;10.762;2023-03-01T07:40:03;0.80;99.90
8557;DHT22;4316;53.840;10.762;2023-03-01T07:42:29;0.80;99.90
8557;DHT22;4316;53.840;10.762;2023-03-01T07:44:55;0.90;99.90
8557;DHT22;4316;53.840;10.762;2023-03-01T07:47:21;1.00;99.90
8557;DHT22;4316;53.840;10.762;2023-03-01T07:49:46;1.00;99.90
8557;DHT22;4316;53.840;10.762;2023-03-01T07:52:12;1.20;99.90
8557;DHT22;4316;53.840;10.762;2023-03-01T07:54:38;1.30;99.90
8557;DHT22;4316;53.840;10.762;2023-03-01T07:57:04;1.40;99.90
8557;DHT22;4316;53.840;10.762;2023-03-01T07:59:30;1.30;99.90
8557;DHT22;4316;53.840;10.762;2023-03-01T08:01:57;1.30;99.90
8557;DHT22;4316;53.840;10.762;2023-03-01T08:04:23;1.30;99.90
8557;DHT22;4316;53.840;10.762;2023-03-01T08:06:50;1.30;99.90
8557;DHT22;4316;53.840;10.762;2023-03-01T08:09:16;1.30;99.90
8557;DHT22;4316;53.840;10.762;2023-03-01T08:11:42;1.30;99.90
8557;DHT22;4316;53.840;10.762;2023-03-01T08:14:08;1.30;99.90
8557;DHT22;4316;53.840;10.762;2023-03-01T08:16:34;1.40;99.90
8557;DHT22;4316;53.840;10.762;2023-03-01T08:19:08;1.40;99.90
8557;DHT22;4316;53.840;10.762;2023-03-01T08:21:34;1.50;99.90
8557;DHT22;4316;53.840;10.762;2023-03-01T08:24:05;1.50;99.90
8557;DHT22;4316;53.840;10.762;2023-03-01T08:26:32;1.60;99.90
8557;DHT22;4316;53.840;10.762;2023-03-01T08:28:59;1.70;99.90
8557;DHT22;4316;53.840;10.762;2023-03-01T08:31:28;1.80;99.90
8557;DHT22;4316;53.840;10.762;2023-03-01T08:34:01;1.80;99.90
8557;DHT22;4316;53.840;10.762;2023-03-01T08:36:33;1.90;99.90
8557;DHT22;4316;53.840;10.762;2023-03-01T08:39:00;1.90;99.90
8557;DHT22;4316;53.840;10.762;2023-03-01T08:41:26;2.00;99.90
8557;DHT22;4316;53.840;10.762;2023-03-01T08:43:54;2.10;99.90
8557;DHT22;4316;53.840;10.762;2023-03-01T08:46:25;2.20;99.90
8557;DHT22;4316;53.840;10.762;2023-03-01T08:48:51;2.30;99.90
8557;DHT22;4316;53.840;10.762;2023-03-01T08:51:18;2.30;99.90
8557;DHT22;4316;53.840;10.762;2023-03-01T08:53:44;2.50;99.90
8557;DHT22;4316;53.840;10.762;2023-03-01T08:56:12;2.60;99.90
8557;DHT22;4316;53.840;10.762;2023-03-01T08:58:38;2.60;99.90
8557;DHT22;4316;53.840;10.762;2023-03-01T09:01:10;2.70;99.90
8557;DHT22;4316;53.840;10.762;2023-03-01T09:03:36;2.80;99.90
8557;DHT22;4316;53.840;10.762;2023-03-01T09:06:03;2.80;99.90
8557;DHT22;4316;53.840;10.762;2023-03-01T09:08:30;2.90;99.90
8557;DHT22;4316;53.840;10.762;2023-03-01T09:10:56;3.00;99.90
8557;DHT22;4316;53.840;10.762;2023-03-01T09:13:22;3.10;99.90
8557;DHT22;4316;53.840;10.762;2023-03-01T09:15:52;3.10;99.90
8557;DHT22;4316;53.840;10.762;2023-03-01T09:18:18;3.30;99.90
8557;DHT22;4316;53.840;10.762;2023-03-01T09:20:44;3.30;99.90
8557;DHT22;4316;53.840;10.762;2023-03-01T09:23:10;3.50;99.90
8557;DHT22;4316;53.840;10.762;2023-03-01T09:25:35;3.70;99.90
8557;DHT22;4316;53.840;10.762;2023-03-01T09:28:01;3.80;99.90
8557;DHT22;4316;53.840;10.762;2023-03-01T09:30:27;4.00;99.90
8557;DHT22;4316;53.840;10.762;2023-03-01T09:32:52;4.00;99.90
8557;DHT22;4316;53.840;10.762;2023-03-01T09:35:18;4.30;99.90
8557;DHT22;4316;53.840;10.762;2023-03-01T09:37:45;5.00;99.90
8557;DHT22;4316;53.840;10.762;2023-03-01T09:40:17;5.70;99.90
8557;DHT22;4316;53.840;10.762;2023-03-01T09:43:00;6.50;99.90
8557;DHT22;4316;53.840;10.762;2023-03-01T09:45:41;7.80;99.90
8557;DHT22;4316;53.840;10.762;2023-03-01T09:48:19;8.40;99.90
8557;DHT22;4316;53.840;10.762;2023-03-01T09:50:48;8.80;99.90
8557;DHT22;4316;53.840;10.762;2023-03-01T09:53:16;9.30;99.90
8557;DHT22;4316;53.840;10.762;2023-03-01T09:55:48;9.30;99.90
8557;DHT22;4316;53.840;10.762;2023-03-01T09:58:41;9.60;99.90
8557;DHT22;4316;53.840;10.762;2023-03-01T10:04:32;10.60;99.90
8557;DHT22;4316;53.840;10.762;2023-03-01T10:09:38;11.90;99.90
8557;DHT22;4316;53.840;10.762;2023-03-01T10:12:30;12.50;99.90
8557;DHT22;4316;53.840;10.762;2023-03-01T10:15:09;12.90;99.90
8557;DHT22;4316;53.840;10.762;2023-03-01T10:20:23;12.80;99.90
8557;DHT22;4316;53.840;10.762;2023-03-01T10:22:49;13.30;99.90
8557;DHT22;4316;53.840;10.762;2023-03-01T10:28:28;13.80;99.90
8557;DHT22;4316;53.840;10.762;2023-03-01T10:30:57;13.60;99.90
8557;DHT22;4316;53.840;10.762;2023-03-01T10:33:32;14.50;99.90
8557;DHT22;4316;53.840;10.762;2023-03-01T10:35:58;14.90;99.90
8557;DHT22;4316;53.840;10.762;2023-03-01T10:38:24;14.90;99.10
8557;DHT22;4316;53.840;10.762;2023-03-01T10:43:16;13.30;99.90
8557;DHT22;4316;53.840;10.762;2023-03-01T10:45:42;12.00;99.90
8557;DHT22;4316;53.840;10.762;2023-03-01T10:48:23;11.70;99.90
8557;DHT22;4316;53.840;10.762;2023-03-01T10:56:14;11.40;99.90
8557;DHT22;4316;53.840;10.762;2023-03-01T11:01:26;11.40;99.90
8557;DHT22;4316;53.840;10.762;2023-03-01T11:06:38;11.40;99.90
8557;DHT22;4316;53.840;10.762;2023-03-01T11:09:24;11.20;99.90
8557;DHT22;4316;53.840;10.762;2023-03-01T11:11:57;11.10;99.90
8557;DHT22;4316;53.840;10.762;2023-03-01T11:14:27;10.90;99.90
8557;DHT22;4316;53.840;10.762;2023-03-01T11:22:49;10.70;99.90
8557;DHT22;4316;53.840;10.762;2023-03-01T11:25:19;10.90;99.90
8557;DHT22;4316;53.840;10.762;2023-03-01T11:27:46;11.20;99.90
8557;DHT22;4316;53.840;10.762;2023-03-01T11:30:28;11.30;99.90
8557;DHT22;4316;53.840;10.762;2023-03-01T11:38:41;10.90;99.90
8557;DHT22;4316;53.840;10.762;2023-03-01T11:41:15;10.90;99.90
8557;DHT22;4316;53.840;10.762;2023-03-01T11:44:02;10.80;99.90
8557;DHT22;4316;53.840;10.762;2023-03-01T11:51:48;11.10;99.90
8557;DHT22;4316;53.840;10.762;2023-03-01T11:59:55;11.10;99.90
8557;DHT22;4316;53.840;10.762;2023-03-01T12:10:31;11.70;99.90
8557;DHT22;4316;53.840;10.762;2023-03-01T12:13:27;11.30;99.90
8557;DHT22;4316;53.840;10.762;2023-03-01T12:21:26;11.00;99.90
8557;DHT22;4316;53.840;10.762;2023-03-01T12:32:34;11.10;99.90
8557;DHT22;4316;53.840;10.762;2023-03-01T12:37:56;11.40;99.90
8557;DHT22;4316;53.840;10.762;2023-03-01T12:43:33;11.50;99.90
8557;DHT22;4316;53.840;10.762;2023-03-01T12:49:09;11.70;99.90
8557;DHT22;4316;53.840;10.762;2023-03-01T12:51:38;11.90;99.90
8557;DHT22;4316;53.840;10.762;2023-03-01T12:57:30;11.60;99.90
8557;DHT22;4316;53.840;10.762;2023-03-01T13:06:19;12.00;99.90
8557;DHT22;4316;53.840;10.762;2023-03-01T13:10:17;11.60;99.90
8557;DHT22;4316;53.840;10.762;2023-03-01T13:26:06;11.10;99.90
8557;DHT22;4316;53.840;10.762;2023-03-01T13:33:56;10.60;99.90
8557;DHT22;4316;53.840;10.762;2023-03-01T13:39:02;10.60;99.90
8557;DHT22;4316;53.840;10.762;2023-03-01T13:49:41;9.90;99.90
8557;DHT22;4316;53.840;10.762;2023-03-01T13:52:38;9.90;99.90
8557;DHT22;4316;53.840;10.762;2023-03-01T13:57:39;10.10;99.90
8557;DHT22;4316;53.840;10.762;2023-03-01T14:00:30;10.00;99.90
8557;DHT22;4316;53.840;10.762;2023-03-01T14:05:39;9.70;99.90
8557;DHT22;4316;53.840;10.762;2023-03-01T14:08:19;9.80;99.90
8557;DHT22;4316;53.840;10.762;2023-03-01T14:19:23;9.50;99.90
8557;DHT22;4316;53.840;10.762;2023-03-01T14:24:51;9.60;99.90
8557;DHT22;4316;53.840;10.762;2023-03-01T14:27:17;9.60;99.90
8557;DHT22;4316;53.840;10.762;2023-03-01T14:29:47;9.70;99.90
8557;DHT22;4316;53.840;10.762;2023-03-01T14:32:20;9.40;99.90
8557;DHT22;4316;53.840;10.762;2023-03-01T14:34:48;9.20;99.90
8557;DHT22;4316;53.840;10.762;2023-03-01T14:37:35;9.30;99.90
8557;DHT22;4316;53.840;10.762;2023-03-01T14:40:02;9.30;99.90
8557;DHT22;4316;53.840;10.762;2023-03-01T14:42:33;9.20;99.90
8557;DHT22;4316;53.840;10.762;2023-03-01T14:45:01;9.10;99.90
8557;DHT22;4316;53.840;10.762;2023-03-01T14:47:34;9.00;99.90
8557;DHT22;4316;53.840;10.762;2023-03-01T14:50:23;9.00;99.90
8557;DHT22;4316;53.840;10.762;2023-03-01T14:52:54;9.00;99.90
8557;DHT22;4316;53.840;10.762;2023-03-01T14:55:26;8.80;99.90
8557;DHT22;4316;53.840;10.762;2023-03-01T14:57:53;8.90;99.90
8557;DHT22;4316;53.840;10.762;2023-03-01T15:00:26;8.90;99.90
8557;DHT22;4316;53.840;10.762;2023-03-01T15:02:54;8.90;99.90
8557;DHT22;4316;53.840;10.762;2023-03-01T15:05:31;8.90;99.90
8557;DHT22;4316;53.840;10.762;2023-03-01T15:07:59;9.00;99.90
8557;DHT22;4316;53.840;10.762;2023-03-01T15:10:36;9.00;99.90
8557;DHT22;4316;53.840;10.762;2023-03-01T15:13:22;9.10;99.90
8557;DHT22;4316;53.840;10.762;2023-03-01T15:15:50;9.10;99.90
8557;DHT22;4316;53.840;10.762;2023-03-01T15:20:44;9.00;99.90
8557;DHT22;4316;53.840;10.762;2023-03-01T15:23:26;9.00;99.90
8557;DHT22;4316;53.840;10.762;2023-03-01T15:25:54;8.70;99.90
8557;DHT22;4316;53.840;10.762;2023-03-01T15:28:26;8.10;99.90
8557;DHT22;4316;53.840;10.762;2023-03-01T15:30:55;7.90;99.90
8557;DHT22;4316;53.840;10.762;2023-03-01T15:35:56;7.60;99.90
8557;DHT22;4316;53.840;10.762;2023-03-01T15:38:49;7.70;99.90
8557;DHT22;4316;53.840;10.762;2023-03-01T15:41:30;7.70;99.90
8557;DHT22;4316;53.840;10.762;2023-03-01T15:44:00;7.00;99.90
8557;DHT22;4316;53.840;10.762;2023-03-01T15:46:31;7.00;99.90
8557;DHT22;4316;53.840;10.762;2023-03-01T15:49:00;7.00;99.90
8557;DHT22;4316;53.840;10.762;2023-03-01T15:53:56;7.10;99.90
8557;DHT22;4316;53.840;10.762;2023-03-01T15:56:23;7.10;99.90
8557;DHT22;4316;53.840;10.762;2023-03-01T15:58:49;7.00;99.90
8557;DHT22;4316;53.840;10.762;2023-03-01T16:01:16;7.00;99.90
8557;DHT22;4316;53.840;10.762;2023-03-01T16:03:42;6.60;99.90
8557;DHT22;4316;53.840;10.762;2023-03-01T16:06:12;6.60;99.90
8557;DHT22;4316;53.840;10.762;2023-03-01T16:08:38;6.70;99.90
8557;DHT22;4316;53.840;10.762;2023-03-01T16:11:16;6.70;99.90
8557;DHT22;4316;53.840;10.762;2023-03-01T16:13:42;6.80;99.90
8557;DHT22;4316;53.840;10.762;2023-03-01T16:16:10;6.80;99.90
8557;DHT22;4316;53.840;10.762;2023-03-01T16:18:38;6.70;99.90
8557;DHT22;4316;53.840;10.762;2023-03-01T16:21:04;6.70;99.90
8557;DHT22;4316;53.840;10.762;2023-03-01T16:23:30;6.60;99.90
8557;DHT22;4316;53.840;10.762;2023-03-01T16:25:59;6.40;99.90
8557;DHT22;4316;53.840;10.762;2023-03-01T16:28:25;6.30;99.90
8557;DHT22;4316;53.840;10.762;2023-03-01T16:30:52;6.40;99.90
8557;DHT22;4316;53.840;10.762;2023-03-01T16:33:17;6.30;99.90
8557;DHT22;4316;53.840;10.762;2023-03-01T16:35:43;6.30;99.90
8557;DHT22;4316;53.840;10.762;2023-03-01T16:38:10;6.40;99.90
8557;DHT22;4316;53.840;10.762;2023-03-01T16:40:35;6.40;99.90
8557;DHT22;4316;53.840;10.762;2023-03-01T16:43:01;6.30;99.90
8557;DHT22;4316;53.840;10.762;2023-03-01T16:45:29;5.90;99.90
8557;DHT22;4316;53.840;10.762;2023-03-01T16:47:58;5.90;99.90
8557;DHT22;4316;53.840;10.762;2023-03-01T16:50:24;5.90;99.90
8557;DHT22;4316;53.840;10.762;2023-03-01T16:52:50;5.90;99.90
8557;DHT22;4316;53.840;10.762;2023-03-01T16:55:16;5.80;99.90
8557;DHT22;4316;53.840;10.762;2023-03-01T16:57:41;5.80;99.90
8557;DHT22;4316;53.840;10.762;2023-03-01T17:00:10;5.90;99.90
8557;DHT22;4316;53.840;10.762;2023-03-01T17:02:36;5.80;99.90
8557;DHT22;4316;53.840;10.762;2023-03-01T17:05:03;5.80;99.90
8557;DHT22;4316;53.840;10.762;2023-03-01T17:07:29;5.70;99.90
8557;DHT22;4316;53.840;10.762;2023-03-01T17:09:59;5.80;99.90
8557;DHT22;4316;53.840;10.762;2023-03-01T17:12:25;5.80;99.90
8557;DHT22;4316;53.840;10.762;2023-03-01T17:14:51;5.90;99.90
8557;DHT22;4316;53.840;10.762;2023-03-01T17:17:20;5.70;99.90
8557;DHT22;4316;53.840;10.762;2023-03-01T17:19:45;5.30;99.90
8557;DHT22;4316;53.840;10.762;2023-03-01T17:22:11;5.50;99.90
8557;DHT22;4316;53.840;10.762;2023-03-01T17:24:39;5.60;99.90
8557;DHT22;4316;53.840;10.762;2023-03-01T17:27:06;5.70;99.90
8557;DHT22;4316;53.840;10.762;2023-03-01T17:29:32;5.70;99.90
8557;DHT22;4316;53.840;10.762;2023-03-01T17:31:58;5.70;99.90
8557;DHT22;4316;53.840;10.762;2023-03-01T17:34:24;5.80;99.90
8557;DHT22;4316;53.840;10.762;2023-03-01T17:36:50;5.60;99.90
8557;DHT22;4316;53.840;10.762;2023-03-01T17:39:17;5.60;99.90
8557;DHT22;4316;53.840;10.762;2023-03-01T17:41:46;5.60;99.90
8557;DHT22;4316;53.840;10.762;2023-03-01T17:44:11;5.60;99.90
8557;DHT22;4316;53.840;10.762;2023-03-01T17:46:37;5.60;99.90
8557;DHT22;4316;53.840;10.762;2023-03-01T17:49:03;5.40;99.90
8557;DHT22;4316;53.840;10.762;2023-03-01T17:51:29;5.40;99.90
8557;DHT22;4316;53.840;10.762;2023-03-01T17:53:54;5.30;99.90
8557;DHT22;4316;53.840;10.762;2023-03-01T17:56:20;5.30;99.90
8557;DHT22;4316;53.840;10.762;2023-03-01T17:58:46;5.30;99.90
8557;DHT22;4316;53.840;10.762;2023-03-01T18:01:14;5.40;99.90
8557;DHT22;4316;53.840;10.762;2023-03-01T18:03:41;5.40;99.90
8557;DHT22;4316;53.840;10.762;2023-03-01T18:06:17;5.60;99.90
8557;DHT22;4316;53.840;10.762;2023-03-01T18:08:45;5.70;99.90
8557;DHT22;4316;53.840;10.762;2023-03-01T18:11:12;5.80;99.90
8557;DHT22;4316;53.840;10.762;2023-03-01T18:13:39;5.90;99.90
8557;DHT22;4316;53.840;10.762;2023-03-01T18:16:11;5.90;99.90
8557;DHT22;4316;53.840;10.762;2023-03-01T18:18:37;6.00;99.90
8557;DHT22;4316;53.840;10.762;2023-03-01T18:21:04;6.00;99.90
8557;DHT22;4316;53.840;10.762;2023-03-01T18:23:31;6.00;99.90
8557;DHT22;4316;53.840;10.762;2023-03-01T18:26:03;6.00;99.90
8557;DHT22;4316;53.840;10.762;2023-03-01T18:28:30;6.00;99.90
8557;DHT22;4316;53.840;10.762;2023-03-01T18:31:02;5.90;99.90
8557;DHT22;4316;53.840;10.762;2023-03-01T18:33:31;5.90;99.90
8557;DHT22;4316;53.840;10.762;2023-03-01T18:35:57;5.90;99.90
8557;DHT22;4316;53.840;10.762;2023-03-01T18:38:23;5.80;99.90
8557;DHT22;4316;53.840;10.762;2023-03-01T18:40:51;5.70;99.90
8557;DHT22;4316;53.840;10.762;2023-03-01T18:43:17;5.60;99.90
8557;DHT22;4316;53.840;10.762;2023-03-01T18:45:44;5.70;99.90
8557;DHT22;4316;53.840;10.762;2023-03-01T18:48:11;5.70;99.90
8557;DHT22;4316;53.840;10.762;2023-03-01T18:50:39;5.70;99.90